Time;durP1;ratioP1;P1;durP2;ratioP2;P2;SDS_P1;SDS_P2;PMS_P1;PMS_P2;Temp;Humidity;BMP_temperature;BMP_pressure;BME280_temperature;BME280_humidity;BME280_pressure;Samples;Min_cycle;Max_cycle;Signal;HPM_P1;HPM_P2
2024/03/10 05:07:51;;;;;;;0.40;0.40;;;9.40;94.60;;;;;;4898723;23;20772;-68
2024/03/10 05:10:19;;;;;;;0.30;0.30;;;9.40;94.50;;;;;;4898866;29;20205;-67
2024/03/10 05:12:45;;;;;;;0.30;0.30;;;9.40;94.50;;;;;;4900662;29;20598;-66
2024/03/10 05:15:14;;;;;;;0.33;0.33;;;9.40;94.40;;;;;;4899712;29;20203;-65
2024/03/10 05:17:40;;;;;;;0.30;0.30;;;9.40;94.30;;;;;;4900427;29;20266;-67
2024/03/10 05:20:07;;;;;;;0.37;0.37;;;9.40;94.30;;;;;;4900846;29;20646;-66
2024/03/10 05:22:34;;;;;;;0.40;0.40;;;9.40;94.30;;;;;;4900463;29;20645;-66
2024/03/10 05:25:00;;;;;;;0.30;0.30;;;9.40;94.20;;;;;;4899949;29;20186;-67
2024/03/10 05:27:26;;;;;;;0.30;0.30;;;9.50;94.00;;;;;;4900243;29;20214;-65
2024/03/10 05:29:52;;;;;;;0.40;0.40;;;9.50;93.90;;;;;;4900258;29;20665;-67
2024/03/10 05:32:19;;;;;;;0.40;0.40;;;9.50;93.60;;;;;;4899823;29;20499;-66
2024/03/10 05:34:46;;;;;;;0.30;0.30;;;9.60;93.40;;;;;;4899206;29;20180;-68
2024/03/10 05:37:15;;;;;;;0.30;0.30;;;9.60;93.50;;;;;;4898918;29;20619;-67
2024/03/10 05:39:40;;;;;;;0.40;0.40;;;9.60;93.60;;;;;;4899957;29;20179;-67
2024/03/10 05:42:06;;;;;;;0.47;0.47;;;9.60;93.60;;;;;;4899993;29;20171;-67
2024/03/10 05:44:33;;;;;;;0.40;0.40;;;9.60;93.70;;;;;;4899821;29;20171;-68
2024/03/10 05:46:59;;;;;;;0.40;0.40;;;9.50;93.80;;;;;;4899442;29;20208;-66
2024/03/10 05:49:26;;;;;;;0.30;0.30;;;9.50;94.00;;;;;;4899568;29;20231;-67
2024/03/10 05:51:53;;;;;;;0.30;0.30;;;9.50;94.30;;;;;;4899264;29;20526;-68
2024/03/10 05:54:21;;;;;;;0.30;0.30;;;9.40;94.40;;;;;;4899150;29;20163;-66
2024/03/10 05:56:46;;;;;;;0.30;0.30;;;9.40;94.50;;;;;;4898921;29;20251;-67
2024/03/10 05:59:13;;;;;;;0.37;0.37;;;9.30;94.60;;;;;;4899369;29;20261;-68
2024/03/10 06:01:39;;;;;;;0.30;0.30;;;9.30;94.70;;;;;;4900036;29;20628;-69
2024/03/10 06:04:05;;;;;;;0.40;0.40;;;9.20;94.70;;;;;;4899131;29;20306;-69
2024/03/10 06:06:31;;;;;;;0.40;0.40;;;9.20;94.80;;;;;;4898745;29;20203;-67
2024/03/10 06:08:57;;;;;;;0.40;0.40;;;9.20;94.90;;;;;;4898868;29;20189;-67
2024/03/10 06:11:23;;;;;;;0.33;0.33;;;9.20;94.90;;;;;;4898829;29;20175;-67
2024/03/10 06:13:49;;;;;;;0.30;0.30;;;9.20;94.90;;;;;;4898746;29;20183;-68
2024/03/10 06:16:15;;;;;;;0.30;0.30;;;9.20;95.00;;;;;;4897156;29;20842;-66
2024/03/10 06:27:07;;;;;;;0.30;0.30;;;9.20;94.90;;;;;;4898412;29;20214;-67
2024/03/10 06:29:33;;;;;;;0.30;0.30;;;9.20;95.10;;;;;;4898430;29;20246;-67
2024/03/10 06:31:59;;;;;;;0.30;0.30;;;9.20;95.50;;;;;;4898873;29;20171;-66
2024/03/10 06:34:26;;;;;;;0.30;0.30;;;9.10;95.10;;;;;;4898590;29;20430;-66
2024/03/10 06:36:52;;;;;;;0.40;0.40;;;9.10;95.40;;;;;;4898006;29;20435;-67
2024/03/10 06:39:19;;;;;;;0.30;0.30;;;9.00;95.60;;;;;;4897020;29;20199;-65
2024/03/10 06:41:46;;;;;;;0.30;0.30;;;9.00;95.70;;;;;;4899122;29;20188;-68
2024/03/10 06:44:15;;;;;;;0.30;0.30;;;8.90;95.60;;;;;;4898685;29;20227;-66
2024/03/10 06:46:42;;;;;;;0.40;0.40;;;8.90;95.80;;;;;;4898169;29;20206;-66
2024/03/10 06:49:08;;;;;;;0.30;0.30;;;8.90;95.90;;;;;;4898556;29;20171;-65
2024/03/10 06:51:33;;;;;;;0.30;0.30;;;8.90;96.10;;;;;;4898475;29;20175;-66
2024/03/10 06:53:59;;;;;;;0.40;0.40;;;8.90;95.90;;;;;;4898692;29;20238;-68
2024/03/10 06:56:25;;;;;;;0.40;0.40;;;8.90;95.90;;;;;;4898456;29;20650;-66
2024/03/10 06:58:51;;;;;;;0.30;0.30;;;9.00;95.90;;;;;;4898715;29;20199;-65
2024/03/10 07:01:21;;;;;;;0.37;0.37;;;9.00;95.70;;;;;;4898636;29;20171;-66
2024/03/10 07:03:47;;;;;;;0.35;0.35;;;9.00;95.50;;;;;;4899927;29;20194;-67
2024/03/10 07:06:12;;;;;;;0.30;0.30;;;9.10;95.60;;;;;;4905200;29;20206;-67
2024/03/10 07:08:38;;;;;;;0.40;0.40;;;9.10;95.60;;;;;;4902625;29;20806;-66
2024/03/10 07:11:03;;;;;;;0.50;0.50;;;9.10;95.40;;;;;;4900015;29;20172;-67
2024/03/10 07:13:29;;;;;;;0.40;0.40;;;9.10;95.30;;;;;;4900694;29;20563;-66
2024/03/10 07:15:55;;;;;;;0.40;0.40;;;9.10;95.20;;;;;;4900374;29;20199;-67
2024/03/10 07:18:20;;;;;;;0.30;0.30;;;9.20;95.20;;;;;;4899494;29;20209;-67
2024/03/10 07:20:46;;;;;;;0.40;0.40;;;9.20;95.00;;;;;;4898687;29;20662;-70
2024/03/10 07:23:12;;;;;;;0.30;0.30;;;9.20;95.10;;;;;;4898700;29;20167;-68
2024/03/10 07:25:38;;;;;;;0.30;0.30;;;9.20;94.90;;;;;;4898137;29;20197;-68
2024/03/10 07:28:04;;;;;;;0.30;0.30;;;9.20;95.10;;;;;;4898433;29;20204;-69
2024/03/10 07:30:29;;;;;;;0.30;0.30;;;9.20;95.30;;;;;;4901441;29;20646;-67
2024/03/10 07:32:55;;;;;;;0.30;0.30;;;9.20;95.40;;;;;;4903100;29;20191;-66
2024/03/10 07:35:24;;;;;;;0.40;0.40;;;9.10;95.50;;;;;;4904352;29;20171;-69
2024/03/10 07:37:50;;;;;;;0.40;0.40;;;9.10;95.50;;;;;;4903271;29;20702;-67
2024/03/10 07:40:17;;;;;;;0.30;0.30;;;9.10;95.50;;;;;;4903703;29;20221;-67
2024/03/10 07:42:46;;;;;;;0.40;0.40;;;9.10;95.50;;;;;;4902296;29;20192;-70
2024/03/10 07:45:12;;;;;;;0.30;0.30;;;9.10;95.50;;;;;;4899954;29;20179;-65
2024/03/10 07:47:41;;;;;;;0.30;0.30;;;9.20;95.50;;;;;;4901382;29;20231;-68
2024/03/10 07:50:08;;;;;;;0.45;0.45;;;9.20;95.40;;;;;;4901818;29;20168;-68
2024/03/10 07:52:35;;;;;;;0.30;0.30;;;9.20;95.40;;;;;;4902293;29;20232;-68
2024/03/10 07:55:04;;;;;;;0.30;0.30;;;9.30;95.70;;;;;;4901815;29;20178;-66
2024/03/10 07:57:33;;;;;;;0.30;0.30;;;9.30;95.70;;;;;;4901431;29;20191;-67
2024/03/10 08:00:00;;;;;;;0.30;0.30;;;9.40;95.80;;;;;;4900271;29;20180;-68
2024/03/10 08:02:25;;;;;;;0.30;0.30;;;9.50;95.60;;;;;;4901342;29;20239;-68
2024/03/10 08:04:51;;;;;;;0.30;0.30;;;9.70;95.20;;;;;;4900830;29;20179;-66
2024/03/10 08:07:18;;;;;;;0.30;0.30;;;10.00;94.50;;;;;;4900703;29;20372;-68
2024/03/10 08:09:44;;;;;;;0.30;0.30;;;10.50;94.60;;;;;;4901132;29;20171;-71
2024/03/10 08:12:10;;;;;;;0.30;0.30;;;11.10;93.60;;;;;;4900921;29;20423;-68
2024/03/10 08:14:39;;;;;;;0.47;0.47;;;11.90;92.70;;;;;;4900631;29;20408;-67
2024/03/10 08:17:05;;;;;;;0.30;0.30;;;12.60;92.20;;;;;;4900573;29;20431;-66
2024/03/10 08:19:34;;;;;;;0.30;0.30;;;13.10;90.80;;;;;;4900813;29;20382;-67
2024/03/10 08:22:00;;;;;;;0.30;0.20;;;13.30;90.40;;;;;;4899507;29;20906;-64
2024/03/10 08:24:26;;;;;;;0.40;0.40;;;13.50;89.40;;;;;;4900658;29;20416;-67
2024/03/10 08:26:53;;;;;;;0.30;0.30;;;13.40;89.10;;;;;;4900132;29;20539;-67
2024/03/10 08:29:19;;;;;;;0.30;0.30;;;13.50;88.90;;;;;;4900552;29;20282;-67
2024/03/10 08:31:45;;;;;;;0.30;0.30;;;13.30;87.80;;;;;;4901045;29;20491;-67
2024/03/10 08:34:11;;;;;;;0.30;0.30;;;13.10;88.50;;;;;;4900227;29;20180;-68
2024/03/10 08:36:39;;;;;;;0.37;0.37;;;13.00;87.90;;;;;;4899990;29;20200;-68
2024/03/10 08:39:08;;;;;;;0.40;0.40;;;12.90;87.40;;;;;;4900493;29;20439;-67
2024/03/10 08:41:37;;;;;;;0.30;0.30;;;12.80;87.30;;;;;;4899727;29;20822;-70
2024/03/10 08:44:03;;;;;;;0.30;0.30;;;12.70;87.60;;;;;;4917074;29;20424;-69
2024/03/10 08:46:30;;;;;;;0.50;0.50;;;12.60;87.80;;;;;;4900451;29;20565;-66
2024/03/10 08:48:56;;;;;;;0.30;0.30;;;12.70;88.50;;;;;;4916960;29;20427;-68
2024/03/10 08:51:22;;;;;;;0.30;0.30;;;12.70;88.50;;;;;;4916759;29;20422;-67
2024/03/10 08:53:49;;;;;;;0.30;0.30;;;12.70;88.70;;;;;;4916791;29;20450;-68
2024/03/10 08:56:15;;;;;;;0.30;0.27;;;12.70;88.70;;;;;;4916264;29;20508;-66
2024/03/10 08:58:41;;;;;;;0.30;0.30;;;12.70;88.90;;;;;;4917153;29;20864;-67
2024/03/10 09:01:07;;;;;;;0.30;0.30;;;12.80;89.10;;;;;;4916952;29;20300;-67
2024/03/10 09:03:34;;;;;;;0.30;0.30;;;12.80;88.80;;;;;;4917241;29;20422;-69
2024/03/10 09:06:00;;;;;;;0.30;0.30;;;12.80;88.80;;;;;;4900434;29;20443;-65
2024/03/10 09:08:26;;;;;;;0.40;0.40;;;12.70;89.20;;;;;;4916421;29;20465;-68
2024/03/10 09:10:52;;;;;;;0.40;0.40;;;12.70;90.00;;;;;;4916816;29;20454;-69
2024/03/10 09:13:19;;;;;;;0.30;0.30;;;12.60;91.00;;;;;;4900989;29;20262;-66
2024/03/10 09:15:45;;;;;;;0.30;0.30;;;12.50;90.90;;;;;;4902583;29;20793;-67
2024/03/10 09:18:11;;;;;;;0.30;0.30;;;12.60;91.20;;;;;;4899443;29;20423;-66
2024/03/10 09:20:39;;;;;;;0.63;0.50;;;12.60;91.30;;;;;;4899685;29;20541;-67
2024/03/10 09:23:05;;;;;;;0.30;0.20;;;12.80;91.20;;;;;;4899552;29;20397;-68
2024/03/10 09:25:31;;;;;;;0.30;0.30;;;12.80;90.80;;;;;;4899206;29;20411;-66
2024/03/10 09:27:57;;;;;;;0.30;0.20;;;13.00;90.40;;;;;;4899359;29;20513;-69
2024/03/10 09:30:24;;;;;;;0.30;0.30;;;13.20;90.00;;;;;;4899406;29;20246;-68
2024/03/10 09:32:56;;;;;;;0.40;0.40;;;13.50;90.50;;;;;;4899184;29;20495;-67
2024/03/10 09:35:34;;;;;;;0.30;0.30;;;14.00;90.10;;;;;;4899340;29;20417;-67
2024/03/10 09:38:04;;;;;;;0.30;0.30;;;14.40;88.00;;;;;;4898015;29;20419;-70
2024/03/10 09:40:31;;;;;;;0.30;0.30;;;14.60;84.80;;;;;;4899307;29;20426;-69
2024/03/10 09:42:59;;;;;;;0.30;0.30;;;14.60;84.60;;;;;;4899048;29;20419;-67
2024/03/10 09:45:28;;;;;;;0.30;0.30;;;14.80;84.30;;;;;;4898963;29;20397;-68
2024/03/10 09:47:54;;;;;;;0.30;0.30;;;15.10;83.10;;;;;;4899489;29;20438;-68
2024/03/10 09:50:24;;;;;;;0.30;0.30;;;15.30;82.10;;;;;;4899441;29;20805;-66
2024/03/10 09:52:54;;;;;;;0.30;0.30;;;15.20;81.40;;;;;;4898329;29;20390;-69
2024/03/10 09:55:20;;;;;;;0.30;0.30;;;15.00;81.60;;;;;;4898675;29;20397;-66
2024/03/10 09:57:53;;;;;;;0.40;0.40;;;14.90;81.50;;;;;;4898816;29;20393;-64
2024/03/10 10:00:25;;;;;;;0.30;0.20;;;14.70;82.30;;;;;;4899161;29;20410;-67
2024/03/10 10:03:03;;;;;;;1.47;1.20;;;14.40;83.10;;;;;;4899001;29;20497;-64
2024/03/10 10:05:29;;;;;;;0.30;0.30;;;14.30;83.40;;;;;;4898268;29;20511;-65
2024/03/10 10:07:58;;;;;;;0.30;0.30;;;14.20;84.40;;;;;;4898612;29;20564;-65
2024/03/10 10:10:26;;;;;;;0.30;0.30;;;14.10;85.00;;;;;;4898739;29;20384;-66
2024/03/10 10:12:53;;;;;;;0.30;0.30;;;14.10;84.40;;;;;;4898901;29;20421;-65
2024/03/10 10:15:26;;;;;;;0.30;0.30;;;14.10;84.60;;;;;;4897398;29;20499;-71
2024/03/10 10:17:59;;;;;;;1.70;1.60;;;14.10;84.80;;;;;;4898499;29;20496;-67
2024/03/10 10:20:25;;;;;;;0.30;0.30;;;14.10;84.80;;;;;;4898349;29;20430;-65
2024/03/10 10:22:53;;;;;;;0.50;0.50;;;14.00;85.40;;;;;;4898405;29;20898;-67
2024/03/10 10:25:18;;;;;;;0.50;0.50;;;14.00;85.90;;;;;;4897876;29;20394;-69
2024/03/10 10:27:49;;;;;;;0.30;0.30;;;14.00;86.20;;;;;;4898335;29;20792;-68
2024/03/10 10:30:28;;;;;;;0.30;0.30;;;14.10;86.60;;;;;;4898519;29;20173;-67
2024/03/10 10:33:04;;;;;;;0.30;0.30;;;14.20;86.80;;;;;;4898469;29;20767;-68
2024/03/10 10:35:34;;;;;;;0.30;0.30;;;14.30;85.90;;;;;;4898006;29;20384;-66
2024/03/10 10:38:04;;;;;;;0.30;0.30;;;14.40;84.90;;;;;;4898375;29;20450;-66
2024/03/10 10:40:30;;;;;;;0.30;0.30;;;14.50;85.20;;;;;;4898310;29;20444;-66
2024/03/10 10:42:56;;;;;;;0.30;0.30;;;14.50;84.80;;;;;;4898357;29;20417;-68
2024/03/10 10:45:23;;;;;;;0.30;0.30;;;14.60;85.80;;;;;;4897960;29;20415;-67
2024/03/10 10:47:52;;;;;;;0.30;0.30;;;14.60;88.20;;;;;;4897863;29;20461;-64
2024/03/10 10:50:20;;;;;;;0.40;0.40;;;14.60;89.20;;;;;;4898208;29;20399;-69
2024/03/10 10:52:46;;;;;;;0.30;0.30;;;14.50;90.20;;;;;;4898062;29;20781;-69
2024/03/10 10:55:15;;;;;;;0.40;0.40;;;14.50;90.50;;;;;;4897859;29;20382;-66
2024/03/10 10:57:47;;;;;;;0.43;0.43;;;14.60;90.30;;;;;;4898215;29;20440;-66
2024/03/10 11:00:33;;;;;;;0.40;0.40;;;14.70;90.10;;;;;;4898148;29;20436;-67
2024/03/10 11:03:16;;;;;;;0.30;0.30;;;14.80;90.10;;;;;;4898403;29;20924;-66
2024/03/10 11:06:05;;;;;;;0.37;0.37;;;14.80;89.90;;;;;;4900728;29;20449;-67
2024/03/10 11:08:42;;;;;;;0.33;0.33;;;14.80;89.90;;;;;;4897395;29;20425;-67
2024/03/10 11:11:16;;;;;;;0.30;0.30;;;14.60;90.10;;;;;;4885498;29;20753;-67
2024/03/10 11:13:46;;;;;;;0.30;0.30;;;14.60;88.30;;;;;;4900947;29;20402;-66
2024/03/10 11:16:26;;;;;;;0.30;0.30;;;14.60;87.80;;;;;;4901782;29;20472;-67
2024/03/10 11:19:13;;;;;;;0.30;0.30;;;14.50;87.80;;;;;;4902241;29;20387;-67
2024/03/10 11:21:39;;;;;;;0.30;0.30;;;14.70;87.40;;;;;;4902144;29;20818;-67
2024/03/10 11:24:14;;;;;;;0.30;0.30;;;14.70;88.10;;;;;;4901676;29;20953;-66
2024/03/10 11:26:40;;;;;;;0.30;0.30;;;14.70;88.20;;;;;;4901537;29;20468;-67
2024/03/10 11:29:26;;;;;;;0.30;0.30;;;14.70;87.00;;;;;;4901642;29;20409;-67
2024/03/10 11:31:56;;;;;;;0.30;0.30;;;14.70;85.10;;;;;;4901955;29;20175;-66
2024/03/10 11:34:23;;;;;;;0.37;0.37;;;14.70;85.10;;;;;;4901669;29;20472;-68
2024/03/10 11:36:48;;;;;;;0.30;0.30;;;14.70;84.60;;;;;;4899912;29;20503;-67
2024/03/10 11:39:19;;;;;;;0.30;0.30;;;14.70;84.80;;;;;;4901663;29;20477;-65
2024/03/10 11:41:51;;;;;;;0.30;0.30;;;14.70;85.30;;;;;;4901703;29;20188;-66
2024/03/10 11:44:17;;;;;;;0.50;0.50;;;14.70;85.50;;;;;;4901468;29;20383;-68
2024/03/10 11:46:43;;;;;;;0.30;0.30;;;14.70;85.70;;;;;;4899617;29;20450;-67
2024/03/10 11:49:11;;;;;;;0.30;0.30;;;14.70;85.80;;;;;;4899950;29;20414;-68
2024/03/10 11:51:38;;;;;;;0.37;0.37;;;14.80;86.00;;;;;;4899960;29;20445;-65
2024/03/10 11:54:04;;;;;;;0.30;0.30;;;14.90;86.00;;;;;;4901346;29;20519;-66
2024/03/10 11:56:33;;;;;;;0.30;0.20;;;15.00;86.20;;;;;;4900742;29;20420;-67
2024/03/10 11:59:00;;;;;;;0.30;0.30;;;15.10;85.30;;;;;;4901160;29;20826;-67
2024/03/10 12:01:30;;;;;;;0.30;0.30;;;15.20;85.70;;;;;;4901477;29;20388;-65
2024/03/10 12:03:59;;;;;;;0.37;0.37;;;15.20;85.80;;;;;;4901237;29;20750;-67
2024/03/10 12:06:24;;;;;;;0.30;0.30;;;15.20;85.60;;;;;;4900527;29;20454;-68
2024/03/10 12:08:50;;;;;;;0.30;0.30;;;15.20;85.10;;;;;;4900982;29;20434;-66
2024/03/10 12:11:17;;;;;;;0.37;0.37;;;15.20;85.50;;;;;;4900870;29;20263;-69
2024/03/10 12:13:44;;;;;;;0.37;0.37;;;15.30;85.90;;;;;;4899688;29;20171;-67
2024/03/10 12:16:11;;;;;;;0.40;0.40;;;15.40;85.90;;;;;;4899479;29;20493;-67
2024/03/10 12:18:40;;;;;;;4.17;1.17;;;15.60;84.90;;;;;;4909650;29;20427;-68
2024/03/10 12:21:14;;;;;;;0.60;0.60;;;15.60;84.40;;;;;;4899207;29;20768;-66
2024/03/10 12:23:42;;;;;;;0.30;0.30;;;15.60;84.10;;;;;;4900629;29;20669;-68
2024/03/10 12:26:09;;;;;;;0.30;0.30;;;15.60;84.40;;;;;;4898776;29;20437;-66
2024/03/10 12:28:36;;;;;;;0.40;0.40;;;15.60;84.50;;;;;;4900509;29;20518;-68
2024/03/10 12:31:12;;;;;;;0.30;0.20;;;15.60;84.50;;;;;;4900171;29;20397;-67
2024/03/10 12:33:39;;;;;;;0.30;0.30;;;15.60;84.90;;;;;;4900624;29;20416;-67
2024/03/10 12:36:06;;;;;;;1.27;1.27;;;15.60;84.90;;;;;;4899943;29;20432;-67
2024/03/10 12:38:33;;;;;;;0.30;0.30;;;15.60;85.00;;;;;;4900373;29;20405;-68
2024/03/10 12:40:58;;;;;;;0.30;0.20;;;15.50;85.80;;;;;;4899526;29;20413;-66
2024/03/10 12:43:24;;;;;;;0.30;0.30;;;15.30;86.10;;;;;;4919884;29;20411;-67
2024/03/10 12:45:51;;;;;;;0.30;0.30;;;15.20;86.50;;;;;;4919102;29;20191;-70
2024/03/10 12:48:17;;;;;;;0.30;0.30;;;15.20;87.20;;;;;;4907802;29;20818;-68
2024/03/10 12:50:43;;;;;;;0.30;0.30;;;15.20;88.20;;;;;;4900407;29;20381;-66
2024/03/10 12:53:08;;;;;;;0.30;0.30;;;15.10;86.00;;;;;;4899310;29;20450;-65
2024/03/10 12:55:34;;;;;;;0.40;0.40;;;15.20;86.60;;;;;;4900085;29;20173;-66
2024/03/10 12:58:00;;;;;;;0.33;0.33;;;15.30;86.70;;;;;;4900141;29;20264;-65
2024/03/10 13:00:30;;;;;;;0.30;0.30;;;15.40;86.50;;;;;;4899691;29;20189;-66
2024/03/10 13:03:00;;;;;;;0.30;0.30;;;15.50;87.50;;;;;;4901326;29;20456;-67
2024/03/10 13:05:27;;;;;;;0.30;0.23;;;15.60;89.60;;;;;;4900927;29;20421;-66
2024/03/10 13:07:53;;;;;;;0.30;0.30;;;15.70;90.60;;;;;;4900345;29;20442;-66
2024/03/10 13:10:20;;;;;;;0.30;0.30;;;15.60;91.10;;;;;;4900296;29;20730;-66
2024/03/10 13:12:46;;;;;;;0.30;0.30;;;15.60;91.00;;;;;;4900519;29;20186;-65
2024/03/10 13:15:13;;;;;;;0.30;0.30;;;15.70;91.10;;;;;;4899316;29;20386;-66
2024/03/10 13:17:38;;;;;;;0.30;0.30;;;15.60;91.00;;;;;;4899649;29;20429;-67
2024/03/10 13:20:10;;;;;;;0.40;0.40;;;15.60;91.00;;;;;;4899946;29;20418;-68
2024/03/10 13:22:40;;;;;;;0.30;0.30;;;15.60;90.90;;;;;;4900724;29;20182;-69
2024/03/10 13:25:06;;;;;;;0.30;0.30;;;15.40;91.10;;;;;;4898040;29;20434;-69
2024/03/10 13:27:35;;;;;;;0.30;0.30;;;15.20;91.10;;;;;;4897922;29;20439;-66
2024/03/10 13:30:08;;;;;;;0.30;0.30;;;15.10;91.30;;;;;;4899484;29;20550;-66
2024/03/10 13:32:35;;;;;;;0.33;0.33;;;15.00;91.40;;;;;;4899578;29;20409;-66
2024/03/10 13:35:02;;;;;;;0.30;0.30;;;14.90;91.70;;;;;;4898814;29;20495;-66
2024/03/10 13:37:31;;;;;;;0.37;0.37;;;14.80;91.80;;;;;;4899216;29;20494;-66
2024/03/10 13:39:57;;;;;;;0.30;0.30;;;14.70;92.30;;;;;;4899511;29;20421;-68
2024/03/10 13:42:23;;;;;;;0.30;0.30;;;14.60;92.90;;;;;;4899181;29;20413;-67
2024/03/10 13:44:49;;;;;;;0.30;0.30;;;14.50;93.10;;;;;;4899262;29;20392;-68
2024/03/10 13:47:15;;;;;;;0.30;0.30;;;14.30;93.00;;;;;;4899318;29;20901;-65
2024/03/10 13:49:43;;;;;;;0.33;0.33;;;14.20;93.00;;;;;;4899000;29;20506;-66
2024/03/10 13:52:19;;;;;;;0.30;0.30;;;14.10;93.10;;;;;;4898959;29;20168;-68
2024/03/10 13:54:45;;;;;;;0.60;0.60;;;14.00;93.00;;;;;;4898875;29;20785;-66
2024/03/10 13:57:15;;;;;;;0.30;0.30;;;13.90;92.70;;;;;;4899468;29;20408;-68
2024/03/10 13:59:40;;;;;;;0.50;0.50;;;13.80;93.00;;;;;;4897835;29;20421;-67
2024/03/10 14:02:07;;;;;;;0.30;0.30;;;13.70;93.00;;;;;;4899595;29;20394;-67
2024/03/10 14:04:33;;;;;;;0.37;0.37;;;13.70;93.60;;;;;;4899384;29;20182;-67
2024/03/10 14:06:59;;;;;;;0.30;0.30;;;13.50;93.90;;;;;;4898720;29;20476;-67
2024/03/10 14:09:31;;;;;;;0.30;0.20;;;13.50;94.30;;;;;;4899076;29;20447;-66
2024/03/10 14:11:57;;;;;;;0.30;0.30;;;13.40;94.40;;;;;;4898970;29;20185;-67
2024/03/10 14:14:23;;;;;;;0.30;0.30;;;13.30;94.40;;;;;;4898729;29;20415;-67
2024/03/10 14:16:51;;;;;;;0.60;0.60;;;13.30;95.10;;;;;;4898500;29;20497;-65
2024/03/10 14:19:20;;;;;;;0.50;0.50;;;13.30;94.90;;;;;;4897627;29;20967;-69
2024/03/10 14:21:46;;;;;;;0.33;0.33;;;13.20;94.70;;;;;;4898883;29;20389;-67
2024/03/10 14:24:12;;;;;;;0.30;0.30;;;13.20;94.70;;;;;;4898895;29;20964;-65
2024/03/10 14:26:38;;;;;;;0.30;0.30;;;13.20;94.60;;;;;;4898064;29;20493;-67
2024/03/10 14:29:06;;;;;;;0.40;0.40;;;13.20;94.80;;;;;;4916633;29;20190;-67
2024/03/10 14:31:32;;;;;;;0.40;0.40;;;13.20;94.70;;;;;;4917363;29;20417;-67
2024/03/10 14:33:58;;;;;;;0.93;0.93;;;13.20;95.00;;;;;;4917502;29;20740;-65
2024/03/10 14:36:25;;;;;;;0.30;0.30;;;13.20;95.20;;;;;;4916639;29;20442;-66
2024/03/10 14:38:51;;;;;;;0.30;0.30;;;13.30;95.20;;;;;;4917042;29;20895;-66
2024/03/10 14:41:16;;;;;;;0.30;0.30;;;13.30;95.30;;;;;;4917123;29;20418;-65
2024/03/10 14:43:43;;;;;;;1.00;0.90;;;13.30;95.20;;;;;;4899671;29;20422;-65
2024/03/10 14:46:13;;;;;;;0.30;0.30;;;13.20;94.90;;;;;;4902748;29;20274;-66
2024/03/10 14:48:38;;;;;;;0.50;0.50;;;13.30;95.20;;;;;;4901282;29;20411;-66
2024/03/10 14:51:04;;;;;;;0.30;0.30;;;13.30;95.30;;;;;;4902040;29;20430;-65
2024/03/10 14:53:30;;;;;;;0.30;0.30;;;13.20;95.30;;;;;;4902749;29;20655;-64
2024/03/10 14:55:56;;;;;;;0.57;0.57;;;13.20;95.30;;;;;;4898462;29;20214;-69
2024/03/10 14:58:21;;;;;;;0.40;0.40;;;13.20;95.40;;;;;;4899184;29;20423;-67
2024/03/10 15:00:47;;;;;;;0.30;0.30;;;13.10;95.70;;;;;;4898474;29;20187;-66
2024/03/10 15:03:16;;;;;;;0.30;0.30;;;13.20;95.40;;;;;;4897463;29;20281;-67
2024/03/10 15:05:43;;;;;;;0.37;0.37;;;13.20;95.40;;;;;;4898291;29;20445;-65
2024/03/10 15:08:11;;;;;;;0.53;0.53;;;13.20;95.10;;;;;;4898030;29;20441;-66
2024/03/10 15:10:37;;;;;;;0.50;0.50;;;13.20;94.80;;;;;;4898928;29;20422;-64
2024/03/10 15:13:08;;;;;;;0.30;0.30;;;13.10;94.90;;;;;;4897490;29;20390;-66
2024/03/10 15:15:34;;;;;;;0.30;0.30;;;13.10;94.90;;;;;;4896569;29;20420;-66
2024/03/10 15:18:03;;;;;;;0.30;0.30;;;13.10;95.30;;;;;;4898822;29;20557;-64
2024/03/10 15:20:29;;;;;;;0.50;0.50;;;13.00;95.60;;;;;;4898220;29;20425;-65
2024/03/10 15:22:55;;;;;;;0.30;0.30;;;12.80;95.90;;;;;;4898726;29;20510;-68
2024/03/10 15:25:25;;;;;;;0.50;0.50;;;12.70;96.20;;;;;;4896474;29;20461;-66
2024/03/10 15:27:51;;;;;;;0.70;0.70;;;12.70;96.40;;;;;;4897862;29;20801;-65
2024/03/10 15:30:17;;;;;;;0.30;0.30;;;12.60;96.70;;;;;;4897792;29;20405;-65
2024/03/10 15:32:44;;;;;;;0.37;0.37;;;12.60;96.80;;;;;;4898577;29;20506;-67
2024/03/10 15:35:10;;;;;;;0.30;0.30;;;12.40;96.70;;;;;;4897939;29;20390;-67
2024/03/10 15:37:38;;;;;;;0.70;0.47;;;12.30;96.90;;;;;;4898066;29;20446;-65
2024/03/10 15:40:10;;;;;;;1.37;0.70;;;12.20;97.20;;;;;;4898848;29;20458;-66
2024/03/10 15:42:41;;;;;;;0.30;0.30;;;12.10;97.60;;;;;;4898290;29;20419;-66
2024/03/10 15:45:12;;;;;;;0.80;0.70;;;12.00;98.00;;;;;;4898336;29;20401;-65
2024/03/10 15:47:44;;;;;;;0.30;0.30;;;12.10;98.20;;;;;;4897655;29;20454;-66
2024/03/10 15:50:10;;;;;;;0.37;0.37;;;12.00;98.20;;;;;;4898207;29;20452;-67
2024/03/10 15:52:42;;;;;;;0.30;0.30;;;11.90;98.10;;;;;;4901275;29;20418;-67
2024/03/10 15:55:08;;;;;;;0.40;0.40;;;11.80;98.20;;;;;;4901031;29;20498;-67
2024/03/10 15:57:36;;;;;;;0.30;0.30;;;11.80;98.30;;;;;;4901074;29;20911;-65
2024/03/10 16:00:02;;;;;;;0.40;0.40;;;11.70;98.40;;;;;;4901179;29;20445;-65
2024/03/10 16:02:27;;;;;;;0.30;0.30;;;11.60;98.50;;;;;;4901018;29;20432;-62
2024/03/10 16:04:53;;;;;;;1.00;1.00;;;11.60;98.60;;;;;;4899517;29;20264;-66
2024/03/10 16:07:19;;;;;;;0.40;0.40;;;11.60;98.80;;;;;;4886975;29;20226;-67
2024/03/10 16:09:45;;;;;;;0.30;0.30;;;11.50;99.00;;;;;;4882701;29;20510;-66
2024/03/10 16:12:13;;;;;;;0.30;0.30;;;11.40;99.00;;;;;;4888096;29;20189;-67
2024/03/10 16:14:40;;;;;;;0.30;0.30;;;11.40;98.90;;;;;;4895997;29;20479;-63
2024/03/10 16:17:10;;;;;;;0.30;0.30;;;11.30;99.00;;;;;;4893391;29;20525;-64
2024/03/10 16:19:43;;;;;;;0.30;0.30;;;11.30;99.30;;;;;;4888154;29;20404;-63
2024/03/10 16:22:10;;;;;;;0.40;0.40;;;11.30;99.30;;;;;;4899853;29;20469;-63
2024/03/10 16:24:39;;;;;;;0.30;0.30;;;11.30;99.20;;;;;;4881546;29;20405;-64
2024/03/10 16:27:06;;;;;;;0.47;0.47;;;11.30;99.40;;;;;;4881652;29;20673;-63
2024/03/10 16:29:31;;;;;;;0.30;0.30;;;11.30;99.40;;;;;;4883055;29;20393;-63
2024/03/10 16:31:57;;;;;;;0.43;0.43;;;11.30;99.80;;;;;;4884103;29;20430;-64
2024/03/10 16:34:23;;;;;;;0.40;0.40;;;11.30;99.60;;;;;;4892262;29;20504;-61
2024/03/10 16:36:48;;;;;;;0.30;0.20;;;11.20;99.70;;;;;;4898656;29;20298;-65
2024/03/10 16:39:14;;;;;;;0.63;0.63;;;11.20;99.80;;;;;;4891524;29;20221;-63
2024/03/10 16:41:41;;;;;;;3.63;0.80;;;11.10;99.90;;;;;;4894694;29;20182;-62
2024/03/10 16:44:11;;;;;;;0.30;0.30;;;11.10;99.90;;;;;;4900310;29;20644;-68
2024/03/10 16:46:37;;;;;;;0.53;0.53;;;11.10;99.90;;;;;;4900691;29;20466;-61
2024/03/10 16:49:02;;;;;;;0.30;0.30;;;11.00;99.90;;;;;;4901637;29;20443;-62
2024/03/10 16:51:28;;;;;;;0.30;0.30;;;11.10;99.90;;;;;;4899396;29;20959;-60
2024/03/10 16:53:57;;;;;;;0.70;0.50;;;11.00;99.90;;;;;;4891673;29;20265;-63
2024/03/10 16:56:23;;;;;;;0.30;0.30;;;10.90;99.90;;;;;;4888723;29;20797;-59
2024/03/10 16:58:51;;;;;;;0.70;0.70;;;10.90;99.90;;;;;;4890780;29;20924;-61
2024/03/10 17:01:19;;;;;;;0.30;0.30;;;10.90;99.90;;;;;;4890745;29;20533;-61
2024/03/10 17:03:45;;;;;;;0.30;0.30;;;10.90;99.90;;;;;;4890030;29;20804;-61
2024/03/10 17:06:11;;;;;;;0.30;0.30;;;10.80;99.90;;;;;;4889368;29;20430;-61
2024/03/10 17:08:38;;;;;;;0.57;0.57;;;10.70;99.90;;;;;;4887942;29;20551;-61
2024/03/10 17:11:04;;;;;;;0.30;0.30;;;10.70;99.90;;;;;;4894048;29;20492;-61
2024/03/10 17:13:31;;;;;;;0.30;0.30;;;10.70;99.90;;;;;;4900009;29;20495;-61
2024/03/10 17:15:59;;;;;;;0.30;0.30;;;10.60;99.90;;;;;;4899637;29;20419;-61
2024/03/10 17:18:26;;;;;;;0.30;0.30;;;10.60;99.90;;;;;;4898949;29;20422;-62
2024/03/10 17:20:52;;;;;;;0.30;0.30;;;10.50;99.90;;;;;;4899739;29;20544;-60
2024/03/10 17:23:21;;;;;;;0.30;0.30;;;10.60;99.90;;;;;;4884597;29;20458;-62
2024/03/10 17:25:47;;;;;;;0.40;0.40;;;10.60;99.90;;;;;;4899356;29;20417;-61
2024/03/10 17:28:16;;;;;;;0.30;0.30;;;10.50;99.90;;;;;;4898095;29;20819;-61
2024/03/10 17:30:42;;;;;;;0.37;0.37;;;10.50;99.90;;;;;;4891400;29;20401;-59
2024/03/10 17:33:09;;;;;;;0.30;0.20;;;10.50;99.90;;;;;;4887474;29;20822;-61
2024/03/10 17:35:35;;;;;;;0.30;0.30;;;10.50;99.90;;;;;;4898030;29;20240;-59
2024/03/10 17:38:01;;;;;;;0.57;0.53;;;10.50;99.90;;;;;;4892242;29;20404;-61
2024/03/10 17:40:27;;;;;;;0.40;0.40;;;10.40;99.90;;;;;;4880706;29;20422;-60
2024/03/10 17:42:55;;;;;;;0.30;0.30;;;10.40;99.90;;;;;;4880703;29;20414;-66
2024/03/10 17:45:21;;;;;;;0.30;0.30;;;10.40;99.90;;;;;;4889476;29;20187;-62
2024/03/10 17:47:47;;;;;;;0.40;0.40;;;10.40;99.90;;;;;;4886418;29;20203;-62
2024/03/10 17:50:13;;;;;;;0.95;0.95;;;10.40;99.90;;;;;;4899128;29;20172;-61
2024/03/10 17:52:39;;;;;;;0.33;0.33;;;10.40;99.90;;;;;;4899070;29;20184;-62
2024/03/10 17:55:06;;;;;;;0.50;0.50;;;10.30;99.90;;;;;;4896827;29;20543;-61
2024/03/10 17:57:35;;;;;;;0.30;0.30;;;10.30;99.90;;;;;;4898296;29;20939;-62
2024/03/10 18:00:04;;;;;;;0.30;0.30;;;10.30;99.90;;;;;;4887835;29;20197;-61
2024/03/10 18:02:30;;;;;;;0.30;0.30;;;10.30;99.90;;;;;;4891571;29;20449;-61
2024/03/10 18:04:58;;;;;;;0.93;0.60;;;10.30;99.90;;;;;;4899099;29;20423;-60